Time;durP1;ratioP1;P1;durP2;ratioP2;P2;SDS_P1;SDS_P2;PMS_P1;PMS_P2;Temp;Humidity;BMP_temperature;BMP_pressure;BME280_temperature;BME280_humidity;BME280_pressure;Samples;Min_cycle;Max_cycle;Signal;HPM_P1;HPM_P2
2022/08/30 00:02:25;;;;;;;7.77;5.80;;;24.50;99.90;;;;;;5099177;28;20213;-93
2022/08/30 00:04:52;;;;;;;8.80;5.80;;;24.50;99.90;;;;;;5080831;28;20447;-92
2022/08/30 00:07:18;;;;;;;6.90;6.10;;;24.40;99.90;;;;;;5081125;28;20194;-92
2022/08/30 00:09:44;;;;;;;8.73;5.53;;;24.40;99.90;;;;;;5080824;28;20455;-92
2022/08/30 00:12:09;;;;;;;7.00;5.60;;;24.40;99.90;;;;;;5080855;28;20182;-92
2022/08/30 00:14:36;;;;;;;7.07;5.60;;;24.40;99.90;;;;;;5080643;28;20214;-94
2022/08/30 00:17:01;;;;;;;6.27;5.37;;;24.40;99.90;;;;;;5081666;28;20555;-93
2022/08/30 00:19:27;;;;;;;7.17;5.83;;;24.40;99.90;;;;;;5081652;28;20596;-92
2022/08/30 00:21:53;;;;;;;6.50;5.80;;;24.30;99.90;;;;;;5083219;28;20258;-93
2022/08/30 00:24:18;;;;;;;7.93;6.00;;;24.30;99.90;;;;;;5082631;28;20206;-93
2022/08/30 00:26:44;;;;;;;5.40;4.90;;;24.30;99.90;;;;;;5101387;28;20183;-92
2022/08/30 00:29:10;;;;;;;13.57;6.17;;;24.30;99.90;;;;;;5094269;28;20221;-92
2022/08/30 00:31:35;;;;;;;10.43;7.10;;;24.30;99.90;;;;;;5086030;28;20191;-92
2022/08/30 00:34:01;;;;;;;7.63;6.83;;;24.20;99.90;;;;;;5081392;28;20545;-92
2022/08/30 00:36:27;;;;;;;9.63;5.70;;;24.20;99.90;;;;;;5081146;28;20183;-93
2022/08/30 00:38:53;;;;;;;6.87;5.50;;;24.20;99.90;;;;;;5088743;28;20175;-93
2022/08/30 00:41:18;;;;;;;6.53;5.03;;;24.20;99.90;;;;;;5086530;28;20183;-93
2022/08/30 00:43:44;;;;;;;6.80;6.10;;;24.20;99.90;;;;;;5098507;28;20408;-93
2022/08/30 00:46:10;;;;;;;6.23;5.33;;;24.10;99.90;;;;;;5080472;28;20678;-92
2022/08/30 00:48:40;;;;;;;5.90;5.30;;;24.10;99.90;;;;;;5080570;28;20251;-92
2022/08/30 00:51:08;;;;;;;6.80;5.57;;;24.10;99.90;;;;;;5080094;28;20243;-94
2022/08/30 00:53:37;;;;;;;7.43;5.40;;;24.10;99.90;;;;;;5080895;28;20424;-94
2022/08/30 00:56:05;;;;;;;9.43;5.97;;;24.00;99.90;;;;;;5080948;28;20462;-92
2022/08/30 00:58:35;;;;;;;8.50;5.90;;;24.00;99.90;;;;;;5080225;28;20512;-94
2022/08/30 01:01:03;;;;;;;8.73;5.63;;;24.00;99.90;;;;;;5098594;28;20443;-93
2022/08/30 01:03:30;;;;;;;6.00;5.40;;;23.90;99.90;;;;;;5082426;28;20411;-92
2022/08/30 01:05:57;;;;;;;7.97;6.80;;;23.90;99.90;;;;;;5086251;28;20456;-92
2022/08/30 01:08:23;;;;;;;8.70;5.63;;;23.90;99.90;;;;;;5080560;28;20400;-92
2022/08/30 01:10:51;;;;;;;7.70;5.20;;;23.90;99.90;;;;;;5079776;28;20473;-92
2022/08/30 01:13:18;;;;;;;6.40;5.27;;;23.80;99.90;;;;;;5079444;28;20198;-92
2022/08/30 01:15:45;;;;;;;6.27;5.43;;;23.80;99.90;;;;;;5081513;28;20444;-92
2022/08/30 01:18:11;;;;;;;7.90;6.07;;;23.80;99.90;;;;;;5085836;28;20467;-91
2022/08/30 01:20:45;;;;;;;7.07;6.33;;;23.80;99.90;;;;;;5100062;28;20451;-92
2022/08/30 01:23:15;;;;;;;7.60;6.27;;;23.80;99.90;;;;;;5080792;28;20406;-92
2022/08/30 01:25:43;;;;;;;5.83;5.23;;;23.70;99.90;;;;;;5079819;28;20508;-92
2022/08/30 01:28:19;;;;;;;6.97;5.73;;;23.70;99.90;;;;;;5080775;28;20773;-92
2022/08/30 01:30:46;;;;;;;8.20;5.13;;;23.70;99.90;;;;;;5079787;28;20465;-93
2022/08/30 01:33:11;;;;;;;7.20;5.97;;;23.70;99.90;;;;;;5096723;28;20399;-93
2022/08/30 01:35:46;;;;;;;9.53;6.73;;;23.70;99.90;;;;;;5097343;28;20437;-93
2022/08/30 01:38:13;;;;;;;8.70;6.30;;;23.60;99.90;;;;;;5079252;28;20254;-93
2022/08/30 01:40:39;;;;;;;8.30;6.43;;;23.70;99.90;;;;;;5081840;28;20453;-93
2022/08/30 01:43:05;;;;;;;8.00;6.17;;;23.60;99.90;;;;;;5081222;28;20422;-92
2022/08/30 01:45:31;;;;;;;6.20;5.60;;;23.60;99.90;;;;;;5080623;28;20443;-92
2022/08/30 01:47:57;;;;;;;9.50;6.40;;;23.60;99.90;;;;;;5080474;28;20427;-91
2022/08/30 01:50:23;;;;;;;7.23;6.50;;;23.60;99.90;;;;;;5080148;28;20479;-92
2022/08/30 01:52:49;;;;;;;9.07;6.70;;;23.60;99.90;;;;;;5080665;28;20251;-92
2022/08/30 01:55:14;;;;;;;15.43;6.50;;;23.50;99.90;;;;;;5093004;28;20214;-92
2022/08/30 01:57:40;;;;;;;7.03;5.67;;;23.50;99.90;;;;;;5081229;28;20208;-92
2022/08/30 02:00:08;;;;;;;8.00;7.00;;;23.50;99.90;;;;;;5098700;28;20202;-92
2022/08/30 02:02:33;;;;;;;9.03;6.73;;;23.50;99.90;;;;;;5086467;28;20208;-92
2022/08/30 02:04:59;;;;;;;8.73;7.03;;;23.50;99.90;;;;;;5079623;28;20458;-93
2022/08/30 02:07:25;;;;;;;10.57;7.57;;;23.50;99.90;;;;;;5079139;28;20173;-91
2022/08/30 02:09:52;;;;;;;10.13;7.20;;;23.40;99.90;;;;;;5078723;28;20197;-92
2022/08/30 02:12:18;;;;;;;8.93;6.73;;;23.40;99.90;;;;;;5078411;28;20970;-93
2022/08/30 02:14:44;;;;;;;10.53;6.53;;;23.40;99.90;;;;;;5078193;28;20545;-92
2022/08/30 02:17:12;;;;;;;11.00;7.50;;;23.40;99.90;;;;;;5079034;28;20511;-92
2022/08/30 02:19:39;;;;;;;15.07;7.17;;;23.30;99.90;;;;;;5079018;28;20204;-92
2022/08/30 02:22:06;;;;;;;9.77;7.83;;;23.30;99.90;;;;;;5078907;28;20502;-92
2022/08/30 02:24:31;;;;;;;9.67;7.63;;;23.30;99.90;;;;;;5078619;28;20920;-93
2022/08/30 02:26:57;;;;;;;10.83;7.60;;;23.30;99.90;;;;;;5078781;28;20445;-93
2022/08/30 02:29:24;;;;;;;9.37;6.97;;;23.20;99.90;;;;;;5078264;28;20199;-92
2022/08/30 02:31:50;;;;;;;11.60;9.30;;;23.30;99.90;;;;;;5078280;28;20263;-94
2022/08/30 02:34:17;;;;;;;9.63;7.47;;;23.20;99.90;;;;;;5078641;28;20443;-92
2022/08/30 02:36:43;;;;;;;9.80;6.80;;;23.20;99.90;;;;;;5096428;28;20437;-92
2022/08/30 02:39:11;;;;;;;13.20;7.70;;;23.20;99.90;;;;;;5078499;28;20836;-92
2022/08/30 02:41:37;;;;;;;11.50;8.33;;;23.20;99.90;;;;;;5078017;28;20429;-92
2022/08/30 02:44:04;;;;;;;8.27;6.80;;;23.20;99.90;;;;;;5095768;28;20453;-92
2022/08/30 02:46:30;;;;;;;11.30;8.73;;;23.20;99.90;;;;;;5078049;28;20416;-92
2022/08/30 02:48:56;;;;;;;11.83;8.33;;;23.20;99.90;;;;;;5079154;28;20419;-93
2022/08/30 02:51:22;;;;;;;11.10;7.90;;;23.20;99.90;;;;;;5079624;28;20694;-92
2022/08/30 02:53:48;;;;;;;13.10;7.80;;;23.10;99.90;;;;;;5078914;28;20176;-92
2022/08/30 02:56:15;;;;;;;10.97;8.00;;;23.10;99.90;;;;;;5110651;28;20176;-93
2022/08/30 02:58:42;;;;;;;10.30;8.00;;;23.10;99.90;;;;;;5086426;28;20473;-92
2022/08/30 03:01:11;;;;;;;11.47;7.90;;;23.10;99.90;;;;;;5096290;28;20475;-93
2022/08/30 03:03:37;;;;;;;10.53;7.80;;;23.10;99.90;;;;;;5080224;28;20890;-93
2022/08/30 03:06:03;;;;;;;11.57;8.03;;;23.10;99.90;;;;;;5101734;28;20520;-93
2022/08/30 03:08:30;;;;;;;14.40;9.00;;;23.10;99.90;;;;;;5083163;28;20434;-92
2022/08/30 03:10:56;;;;;;;12.00;7.77;;;23.10;99.90;;;;;;5095682;28;20440;-92
2022/08/30 03:13:23;;;;;;;11.87;8.80;;;23.10;99.90;;;;;;5088449;28;20428;-92
2022/08/30 03:15:49;;;;;;;12.73;8.20;;;23.00;99.90;;;;;;5082414;28;20466;-92
2022/08/30 03:18:16;;;;;;;10.80;8.57;;;23.10;99.90;;;;;;5076778;28;20537;-92
2022/08/30 03:20:41;;;;;;;10.50;7.97;;;23.00;99.90;;;;;;5077115;28;20486;-91
2022/08/30 03:23:07;;;;;;;12.10;8.67;;;23.00;99.90;;;;;;5077029;28;20818;-91
2022/08/30 03:25:33;;;;;;;13.00;8.20;;;23.00;99.90;;;;;;5077144;28;20695;-92
2022/08/30 03:27:59;;;;;;;11.00;8.00;;;23.10;99.90;;;;;;5095646;28;20177;-92
2022/08/30 03:30:25;;;;;;;13.07;9.00;;;23.10;99.90;;;;;;5077791;28;20586;-93
2022/08/30 03:32:51;;;;;;;11.03;8.33;;;23.10;99.90;;;;;;5077139;28;20841;-93
2022/08/30 03:35:17;;;;;;;11.80;8.90;;;23.10;99.90;;;;;;5095169;28;20475;-93
2022/08/30 03:37:43;;;;;;;10.63;8.10;;;23.10;99.90;;;;;;5077637;28;20204;-92
2022/08/30 03:40:11;;;;;;;12.10;8.60;;;23.10;99.90;;;;;;5077932;28;20457;-92
2022/08/30 03:42:37;;;;;;;10.50;8.93;;;23.20;99.90;;;;;;5078505;28;20414;-92
2022/08/30 03:45:04;;;;;;;13.20;8.87;;;23.20;99.90;;;;;;5077887;28;20984;-93
2022/08/30 03:47:29;;;;;;;11.33;9.20;;;23.20;99.90;;;;;;5078239;28;20183;-93
2022/08/30 03:49:56;;;;;;;11.57;9.10;;;23.20;99.90;;;;;;5078232;28;20482;-93
2022/08/30 03:52:22;;;;;;;12.80;9.47;;;23.20;99.90;;;;;;5079645;28;20583;-93
2022/08/30 03:54:48;;;;;;;27.20;17.43;;;23.20;99.90;;;;;;5078296;28;20465;-92
2022/08/30 03:57:13;;;;;;;27.53;18.50;;;23.20;99.90;;;;;;5078747;28;20457;-92
2022/08/30 03:59:39;;;;;;;18.23;13.40;;;23.20;99.90;;;;;;5098551;28;20290;-93
2022/08/30 04:02:05;;;;;;;13.33;10.23;;;23.30;99.90;;;;;;5078797;28;20192;-92
2022/08/30 04:04:30;;;;;;;14.57;9.70;;;23.30;99.90;;;;;;5083384;28;20221;-93
2022/08/30 04:06:56;;;;;;;13.83;8.60;;;23.30;99.90;;;;;;5096114;28;20181;-92
2022/08/30 04:09:22;;;;;;;13.50;9.50;;;23.30;99.90;;;;;;5098887;28;20202;-92
2022/08/30 04:11:47;;;;;;;12.53;8.70;;;23.30;99.90;;;;;;5093835;28;20211;-92
2022/08/30 04:14:13;;;;;;;12.27;9.30;;;23.30;99.90;;;;;;5111857;28;20218;-92
2022/08/30 04:16:39;;;;;;;15.53;10.00;;;23.30;99.90;;;;;;5101079;28;20408;-92
2022/08/30 04:19:05;;;;;;;12.30;9.80;;;23.30;99.90;;;;;;5101382;28;20194;-93
2022/08/30 04:21:30;;;;;;;14.03;9.90;;;23.30;99.90;;;;;;5091878;28;20186;-92
2022/08/30 04:23:56;;;;;;;15.07;10.47;;;23.30;99.90;;;;;;5096574;28;20183;-93
2022/08/30 04:26:22;;;;;;;13.37;9.60;;;23.30;99.90;;;;;;5084809;28;20267;-92
2022/08/30 04:28:48;;;;;;;13.17;9.70;;;23.30;99.90;;;;;;5100711;28;20534;-93
2022/08/30 04:31:16;;;;;;;94.33;49.13;;;23.30;99.90;;;;;;5097779;28;20453;-92
2022/08/30 04:33:42;;;;;;;86.33;48.63;;;23.30;99.90;;;;;;5097102;28;20640;-93
2022/08/30 04:36:09;;;;;;;20.67;15.27;;;23.30;99.90;;;;;;5094929;28;21015;-92
2022/08/30 04:38:38;;;;;;;15.67;12.80;;;23.30;99.90;;;;;;5113760;28;20464;-93
2022/08/30 04:41:15;;;;;;;17.30;12.13;;;23.30;99.90;;;;;;5115528;28;20847;-93
2022/08/30 04:43:41;;;;;;;16.67;11.10;;;23.30;99.90;;;;;;5095753;28;20412;-92
2022/08/30 04:46:08;;;;;;;14.37;10.50;;;23.30;99.90;;;;;;5095086;28;20472;-92
2022/08/30 04:48:35;;;;;;;14.70;9.40;;;23.30;99.90;;;;;;5094788;28;20425;-93
2022/08/30 04:51:06;;;;;;;12.80;9.60;;;23.30;99.90;;;;;;5083394;28;20572;-92
2022/08/30 04:53:32;;;;;;;15.53;11.40;;;23.30;99.90;;;;;;5098650;28;20495;-92
2022/08/30 04:55:58;;;;;;;18.00;10.53;;;23.30;99.90;;;;;;5093091;28;21000;-92
2022/08/30 04:58:23;;;;;;;13.73;10.07;;;23.30;99.90;;;;;;5094856;28;20507;-91
2022/08/30 05:00:49;;;;;;;15.80;10.13;;;23.30;99.90;;;;;;5111910;28;20200;-92
2022/08/30 05:03:16;;;;;;;13.37;9.60;;;23.30;99.90;;;;;;5096833;28;20181;-92
2022/08/30 05:05:47;;;;;;;15.77;10.07;;;23.30;99.90;;;;;;5115395;28;20562;-92
2022/08/30 05:08:15;;;;;;;14.63;11.47;;;23.30;99.90;;;;;;5112346;28;20792;-92
2022/08/30 05:10:43;;;;;;;12.07;9.13;;;23.30;99.90;;;;;;5094484;28;20449;-92
2022/08/30 05:13:09;;;;;;;19.20;10.63;;;23.40;99.90;;;;;;5092003;28;20755;-92
2022/08/30 05:15:36;;;;;;;18.43;11.00;;;23.40;99.90;;;;;;5088625;28;20464;-92
2022/08/30 05:18:03;;;;;;;14.53;10.67;;;23.40;99.90;;;;;;5091215;28;20473;-93
2022/08/30 05:20:29;;;;;;;14.13;10.50;;;23.50;99.90;;;;;;5089908;28;20537;-92
2022/08/30 05:22:55;;;;;;;17.80;10.90;;;23.50;99.90;;;;;;5104866;28;20426;-92
2022/08/30 05:25:23;;;;;;;15.03;11.47;;;23.50;99.90;;;;;;5083229;28;20453;-93
2022/08/30 05:27:49;;;;;;;16.53;11.73;;;23.50;99.90;;;;;;5100134;28;20185;-93
2022/08/30 05:30:16;;;;;;;16.67;10.27;;;23.50;99.90;;;;;;5098290;28;20539;-93
2022/08/30 05:32:42;;;;;;;17.40;12.40;;;23.60;99.90;;;;;;5077354;28;20437;-91
2022/08/30 05:35:10;;;;;;;15.67;11.10;;;23.60;99.90;;;;;;5096352;28;20450;-92
2022/08/30 05:37:36;;;;;;;16.73;11.80;;;23.60;99.90;;;;;;5101575;28;20221;-93
2022/08/30 05:40:03;;;;;;;16.63;12.13;;;23.60;99.90;;;;;;5085258;28;20463;-93
2022/08/30 05:42:28;;;;;;;17.03;11.57;;;23.70;99.90;;;;;;5077725;28;20505;-92
2022/08/30 05:44:54;;;;;;;21.30;14.27;;;23.70;99.90;;;;;;5075572;28;20490;-92
2022/08/30 05:47:21;;;;;;;17.63;12.43;;;23.70;99.90;;;;;;5075149;28;20173;-92
2022/08/30 05:49:47;;;;;;;18.90;12.73;;;23.80;99.90;;;;;;5071456;28;20483;-93
2022/08/30 05:52:16;;;;;;;18.97;12.63;;;23.80;99.90;;;;;;5055210;28;20495;-92
2022/08/30 05:54:50;;;;;;;17.93;12.40;;;23.80;99.90;;;;;;5054803;28;20529;-92
2022/08/30 05:57:16;;;;;;;14.63;11.20;;;23.90;99.90;;;;;;5073895;28;20493;-92
2022/08/30 05:59:42;;;;;;;18.90;11.97;;;23.90;99.90;;;;;;5056023;28;21116;-92
2022/08/30 06:02:08;;;;;;;17.60;12.77;;;23.90;99.90;;;;;;5050812;28;20185;-93
2022/08/30 06:04:35;;;;;;;15.17;11.43;;;24.00;99.90;;;;;;5051491;28;20455;-93
2022/08/30 06:07:02;;;;;;;15.00;11.87;;;24.00;99.90;;;;;;5050875;28;20709;-92
2022/08/30 06:09:27;;;;;;;18.00;12.10;;;24.00;99.90;;;;;;5051238;28;20882;-92
2022/08/30 06:11:53;;;;;;;20.03;11.27;;;24.00;99.90;;;;;;5051926;28;20492;-92
2022/08/30 06:14:19;;;;;;;19.13;12.97;;;24.00;99.90;;;;;;5050744;28;20196;-93
2022/08/30 06:16:45;;;;;;;16.97;12.80;;;24.10;99.90;;;;;;5026313;28;20192;-93
2022/08/30 06:19:13;;;;;;;16.30;11.43;;;24.10;99.90;;;;;;5030427;28;20527;-93
2022/08/30 06:21:40;;;;;;;19.70;12.80;;;24.20;99.90;;;;;;5044783;28;20425;-92
2022/08/30 06:24:07;;;;;;;15.60;10.93;;;24.20;99.90;;;;;;5046337;28;20520;-93
2022/08/30 06:26:37;;;;;;;15.20;11.87;;;24.30;99.90;;;;;;5046185;28;20505;-92
2022/08/30 06:29:03;;;;;;;17.70;11.17;;;24.30;99.90;;;;;;5047024;28;20514;-93
2022/08/30 06:31:29;;;;;;;14.20;10.80;;;24.40;99.90;;;;;;5042185;28;20938;-93
2022/08/30 06:33:55;;;;;;;15.40;12.30;;;24.40;99.90;;;;;;5041646;28;20425;-93
2022/08/30 06:36:24;;;;;;;16.30;11.87;;;24.50;99.90;;;;;;5041270;28;20268;-92
2022/08/30 06:38:51;;;;;;;18.50;12.23;;;24.50;99.90;;;;;;5032028;28;20505;-92
2022/08/30 06:41:21;;;;;;;15.20;11.53;;;24.60;99.90;;;;;;5034382;28;20504;-93
2022/08/30 06:43:47;;;;;;;13.60;10.10;;;24.70;99.90;;;;;;5044383;28;20927;-93
2022/08/30 06:46:17;;;;;;;12.20;10.53;;;24.70;99.90;;;;;;5053306;28;21078;-93
2022/08/30 06:48:43;;;;;;;12.40;9.93;;;24.70;99.90;;;;;;5053776;28;20429;-93
2022/08/30 06:51:09;;;;;;;13.37;10.50;;;24.80;99.90;;;;;;5071686;28;20473;-93
2022/08/30 06:53:35;;;;;;;14.77;10.70;;;24.90;99.90;;;;;;5074942;28;20184;-93
2022/08/30 06:56:06;;;;;;;16.80;10.57;;;24.90;99.90;;;;;;5073191;28;20768;-93
2022/08/30 06:58:33;;;;;;;14.37;10.47;;;24.90;99.90;;;;;;5071576;28;20465;-93
2022/08/30 07:00:59;;;;;;;15.87;10.47;;;25.00;99.90;;;;;;5081575;28;20453;-93
2022/08/30 07:03:27;;;;;;;12.97;10.50;;;25.00;99.90;;;;;;5075089;28;20874;-94
2022/08/30 07:05:55;;;;;;;13.17;10.20;;;25.10;99.90;;;;;;5065509;28;20213;-93
2022/08/30 07:08:21;;;;;;;12.63;9.80;;;25.20;99.90;;;;;;5066288;28;20452;-94
2022/08/30 07:10:48;;;;;;;12.37;8.93;;;25.20;99.90;;;;;;5073663;28;20524;-92
2022/08/30 07:13:15;;;;;;;14.37;10.33;;;25.30;99.90;;;;;;5078417;28;20418;-93
2022/08/30 07:15:42;;;;;;;11.27;9.80;;;25.30;99.90;;;;;;5071761;28;20798;-93
2022/08/30 07:20:53;;;;;;;15.63;9.70;;;25.50;99.90;;;;;;5056192;28;20441;-92
2022/08/30 07:23:19;;;;;;;12.47;9.57;;;25.50;99.90;;;;;;5081215;28;20430;-92
2022/08/30 07:25:45;;;;;;;13.13;10.10;;;25.60;99.90;;;;;;5076671;28;20212;-93
2022/08/30 07:28:10;;;;;;;12.80;9.83;;;25.60;99.90;;;;;;5074288;28;20557;-92
2022/08/30 07:30:37;;;;;;;12.30;10.03;;;25.70;99.90;;;;;;5075688;28;20568;-93
2022/08/30 07:33:03;;;;;;;11.97;10.03;;;25.80;99.90;;;;;;5083101;28;20192;-94
2022/08/30 07:35:30;;;;;;;13.53;10.40;;;25.80;99.90;;;;;;5072653;28;20454;-93
2022/08/30 07:37:56;;;;;;;13.13;10.90;;;25.90;99.90;;;;;;5073358;28;20559;-94
2022/08/30 07:40:21;;;;;;;10.77;9.00;;;25.90;99.90;;;;;;5072831;28;20503;-94
2022/08/30 07:42:47;;;;;;;11.10;9.33;;;26.00;99.90;;;;;;5063363;28;20454;-93
2022/08/30 07:45:13;;;;;;;11.23;8.50;;;26.00;99.90;;;;;;5074794;28;20219;-93
2022/08/30 07:47:41;;;;;;;14.90;11.07;;;26.10;99.90;;;;;;5073833;28;20177;-94
2022/08/30 07:50:07;;;;;;;12.07;8.80;;;26.20;99.90;;;;;;5077433;28;20241;-94
2022/08/30 07:52:34;;;;;;;11.40;9.20;;;26.20;99.90;;;;;;5081040;28;20426;-93
2022/08/30 07:55:00;;;;;;;12.87;10.00;;;26.30;99.90;;;;;;5088060;28;20472;-93
2022/08/30 07:57:30;;;;;;;11.77;9.30;;;26.40;99.90;;;;;;5079803;28;20461;-93
2022/08/30 07:59:55;;;;;;;11.13;8.77;;;26.40;99.90;;;;;;5075461;28;20493;-93
2022/08/30 08:02:21;;;;;;;15.17;10.20;;;26.50;99.90;;;;;;5075983;28;20461;-93
2022/08/30 08:04:47;;;;;;;12.40;10.00;;;26.50;99.90;;;;;;5076448;28;20212;-94
2022/08/30 08:07:13;;;;;;;12.70;9.10;;;26.60;99.90;;;;;;5078518;28;20193;-93
2022/08/30 08:09:38;;;;;;;13.50;10.53;;;26.70;99.90;;;;;;5077009;28;20307;-92
2022/08/30 08:12:05;;;;;;;15.37;9.60;;;26.80;99.90;;;;;;5087319;28;20873;-93
2022/08/30 08:14:32;;;;;;;11.70;9.80;;;26.90;99.90;;;;;;5077962;28;20202;-92
2022/08/30 08:16:58;;;;;;;10.30;9.20;;;27.00;99.90;;;;;;5078034;28;20425;-93
2022/08/30 08:19:24;;;;;;;14.47;10.43;;;27.10;99.90;;;;;;5078370;28;20443;-92
2022/08/30 08:21:53;;;;;;;9.80;8.50;;;27.10;99.90;;;;;;5065510;28;20433;-93
2022/08/30 08:24:20;;;;;;;10.10;8.13;;;27.20;99.90;;;;;;5074470;28;20209;-93
2022/08/30 08:26:46;;;;;;;16.80;12.20;;;27.30;99.90;;;;;;5075128;28;20430;-94
2022/08/30 08:29:12;;;;;;;10.93;9.53;;;27.30;99.90;;;;;;5076517;28;20508;-93
2022/08/30 08:31:40;;;;;;;11.20;9.17;;;27.40;99.90;;;;;;5076958;28;20269;-93
2022/08/30 08:34:06;;;;;;;11.97;9.60;;;27.40;99.90;;;;;;5081307;28;20212;-93
2022/08/30 08:36:33;;;;;;;15.90;9.47;;;27.40;99.90;;;;;;5073291;28;20426;-93
2022/08/30 08:39:00;;;;;;;11.50;9.13;;;27.40;99.90;;;;;;5076522;28;20458;-94
2022/08/30 08:41:52;;;;;;;10.07;8.50;;;27.40;99.90;;;;;;5078980;28;20810;-93
2022/08/30 08:44:46;;;;;;;14.80;10.37;;;27.50;99.90;;;;;;5074537;28;20552;-93
2022/08/30 08:47:23;;;;;;;12.57;9.90;;;27.50;99.90;;;;;;5053467;28;20491;-94
2022/08/30 08:49:51;;;;;;;16.73;11.40;;;27.50;99.90;;;;;;5080123;28;20998;-93
2022/08/30 08:55:22;;;;;;;11.40;9.60;;;27.80;99.90;;;;;;5052635;28;20469;-92
2022/08/30 08:57:48;;;;;;;10.57;9.47;;;28.30;99.90;;;;;;5052437;28;20472;-93
2022/08/30 09:03:03;;;;;;;9.50;8.47;;;28.70;99.90;;;;;;5052362;28;20421;-94
2022/08/30 09:05:36;;;;;;;11.73;10.50;;;28.70;99.90;;;;;;5059004;28;20497;-93
2022/08/30 09:08:09;;;;;;;10.93;8.30;;;28.60;99.90;;;;;;5053936;28;20440;-93
2022/08/30 09:10:35;;;;;;;11.20;9.97;;;28.60;99.90;;;;;;5054486;28;20462;-92
2022/08/30 09:13:01;;;;;;;10.47;9.03;;;28.60;99.90;;;;;;5050090;28;20527;-93
2022/08/30 09:15:30;;;;;;;10.03;8.87;;;28.50;99.90;;;;;;5045358;28;20205;-92
2022/08/30 09:17:58;;;;;;;11.53;9.47;;;28.40;99.90;;;;;;5054806;28;20511;-93
2022/08/30 09:20:31;;;;;;;10.97;9.80;;;28.40;99.90;;;;;;5059544;28;20509;-94
2022/08/30 09:22:58;;;;;;;12.80;8.87;;;28.40;99.90;;;;;;5060323;28;20462;-92
2022/08/30 09:25:31;;;;;;;16.20;10.77;;;28.40;99.90;;;;;;5052089;28;20479;-93
2022/08/30 09:28:14;;;;;;;13.53;9.80;;;28.40;99.90;;;;;;5053641;28;20520;-93
2022/08/30 09:31:02;;;;;;;12.50;10.20;;;28.40;99.90;;;;;;5054179;28;20458;-94
2022/08/30 09:33:28;;;;;;;13.40;10.33;;;28.40;99.90;;;;;;5054492;28;20799;-93
2022/08/30 09:35:54;;;;;;;15.73;11.10;;;28.30;99.90;;;;;;5054199;28;20459;-93
2022/08/30 09:38:28;;;;;;;12.40;10.50;;;28.30;99.90;;;;;;5054048;28;20730;-93
2022/08/30 09:41:01;;;;;;;11.83;10.27;;;28.30;99.90;;;;;;5053533;28;20288;-93
2022/08/30 09:43:32;;;;;;;10.63;9.43;;;28.30;99.90;;;;;;5054401;28;20432;-94
2022/08/30 09:45:58;;;;;;;11.10;10.00;;;28.30;99.90;;;;;;5056642;28;20457;-93
2022/08/30 09:48:27;;;;;;;12.63;9.77;;;28.30;99.90;;;;;;5055006;28;20433;-93
2022/08/30 09:51:31;;;;;;;11.70;10.00;;;28.30;99.90;;;;;;5089364;28;20232;-93
2022/08/30 09:54:17;;;;;;;14.10;9.30;;;28.30;99.90;;;;;;5074735;28;20434;-94
2022/08/30 09:56:55;;;;;;;11.43;9.33;;;28.30;99.90;;;;;;5093107;28;20487;-93
2022/08/30 09:59:44;;;;;;;11.70;9.33;;;28.30;99.90;;;;;;5074958;28;20476;-93
2022/08/30 10:02:34;;;;;;;13.60;9.30;;;28.30;99.90;;;;;;5069017;28;20551;-93
2022/08/30 10:05:21;;;;;;;12.17;9.50;;;28.30;99.90;;;;;;5079584;28;20463;-94
2022/08/30 10:08:19;;;;;;;13.00;8.80;;;28.40;99.90;;;;;;5080849;28;20459;-92
2022/08/30 10:11:15;;;;;;;12.90;8.67;;;28.30;99.90;;;;;;5071653;28;20463;-94
2022/08/30 10:14:02;;;;;;;14.03;8.47;;;28.40;99.90;;;;;;5097124;28;20451;-94
2022/08/30 10:17:02;;;;;;;9.43;8.43;;;28.40;99.90;;;;;;5075920;28;20791;-92
2022/08/30 10:19:57;;;;;;;10.20;8.50;;;28.40;99.90;;;;;;5064982;28;20454;-93
2022/08/30 10:22:33;;;;;;;9.90;8.43;;;28.50;99.90;;;;;;5075555;28;20435;-93
2022/08/30 10:25:10;;;;;;;8.23;7.13;;;28.50;99.90;;;;;;5076261;28;20445;-93
2022/08/30 10:28:03;;;;;;;10.13;7.50;;;28.50;99.90;;;;;;5077658;28;20437;-93
2022/08/30 10:30:32;;;;;;;9.30;8.17;;;28.50;99.90;;;;;;5076167;28;20427;-93
2022/08/30 10:33:19;;;;;;;10.47;8.97;;;28.50;99.90;;;;;;5076311;28;20463;-94
2022/08/30 10:35:49;;;;;;;9.73;7.87;;;28.50;99.90;;;;;;5077252;28;20979;-93
2022/08/30 10:38:24;;;;;;;10.53;8.07;;;28.60;99.90;;;;;;5098974;28;20467;-93
2022/08/30 10:41:13;;;;;;;11.33;8.27;;;28.60;99.90;;;;;;5101905;28;20436;-94
2022/08/30 10:44:06;;;;;;;10.13;8.07;;;28.60;99.90;;;;;;5087187;28;20416;-93
2022/08/30 10:46:49;;;;;;;8.23;7.40;;;28.70;99.90;;;;;;5074457;28;20433;-93
2022/08/30 10:49:20;;;;;;;12.13;8.50;;;28.70;99.90;;;;;;5096463;28;20484;-93
2022/08/30 10:52:06;;;;;;;11.47;8.27;;;28.70;99.90;;;;;;5080276;28;20500;-94
2022/08/30 10:54:41;;;;;;;9.03;7.50;;;28.70;99.90;;;;;;5081118;28;20463;-92
2022/08/30 10:57:07;;;;;;;9.70;7.90;;;28.70;99.90;;;;;;5078448;28;20435;-93
2022/08/30 10:59:36;;;;;;;9.43;8.43;;;28.70;99.90;;;;;;5074332;28;20806;-93
2022/08/30 11:02:19;;;;;;;8.63;7.77;;;28.70;99.90;;;;;;5093847;28;20967;-92
2022/08/30 11:05:06;;;;;;;8.63;7.83;;;28.60;99.90;;;;;;5076205;28;20444;-92
2022/08/30 11:08:09;;;;;;;9.90;7.90;;;28.60;99.90;;;;;;5093093;28;20440;-92
2022/08/30 11:11:12;;;;;;;9.30;7.23;;;28.60;99.90;;;;;;5075009;28;20486;-93
2022/08/30 11:13:40;;;;;;;7.03;6.33;;;28.60;99.90;;;;;;5077021;28;20517;-92
2022/08/30 11:16:14;;;;;;;7.90;7.13;;;28.60;99.90;;;;;;5076955;28;20564;-93
2022/08/30 11:18:56;;;;;;;9.93;7.17;;;28.60;99.90;;;;;;5082490;28;20481;-93
2022/08/30 11:21:40;;;;;;;9.30;6.70;;;28.70;99.90;;;;;;5072590;28;20448;-94
2022/08/30 11:24:18;;;;;;;6.87;6.27;;;28.60;99.90;;;;;;5074674;28;20454;-94
2022/08/30 11:26:44;;;;;;;9.77;6.90;;;28.60;99.90;;;;;;5075381;28;20962;-93
2022/08/30 11:29:26;;;;;;;6.80;6.10;;;28.70;99.90;;;;;;5093303;28;20458;-93
2022/08/30 11:31:53;;;;;;;6.40;5.57;;;28.70;99.90;;;;;;5075015;28;20178;-94
2022/08/30 11:34:44;;;;;;;7.77;5.77;;;28.60;99.90;;;;;;5075129;28;20447;-93
2022/08/30 11:37:36;;;;;;;7.40;6.70;;;28.60;99.90;;;;;;5072215;28;20468;-93
2022/08/30 11:40:21;;;;;;;6.80;5.53;;;28.60;99.90;;;;;;5077599;28;20440;-94
2022/08/30 11:42:49;;;;;;;8.87;6.40;;;28.60;99.90;;;;;;5078746;28;20863;-93
2022/08/30 11:45:21;;;;;;;7.00;5.70;;;28.60;99.90;;;;;;5080074;28;20440;-94
2022/08/30 11:47:56;;;;;;;7.37;6.63;;;28.60;99.90;;;;;;5076169;28;20436;-93
2022/08/30 11:50:28;;;;;;;6.90;5.73;;;28.60;99.90;;;;;;5083743;28;20501;-93
2022/08/30 11:53:39;;;;;;;6.93;6.17;;;28.60;99.90;;;;;;5076670;28;20467;-93
2022/08/30 11:56:17;;;;;;;7.40;6.10;;;28.60;99.90;;;;;;5041962;28;20546;-93
2022/08/30 11:58:58;;;;;;;6.90;6.23;;;28.70;99.90;;;;;;5094807;28;20454;-93
2022/08/30 12:01:24;;;;;;;7.27;5.80;;;28.70;99.90;;;;;;5085254;28;21070;-95
2022/08/30 12:04:07;;;;;;;6.50;5.90;;;28.70;99.90;;;;;;5075398;28;20470;-93
2022/08/30 12:06:55;;;;;;;6.07;5.27;;;28.80;99.90;;;;;;5071076;28;20187;-92
2022/08/30 12:09:24;;;;;;;6.03;5.43;;;28.80;99.90;;;;;;5073815;28;20448;-93
2022/08/30 12:12:06;;;;;;;7.53;6.33;;;28.90;99.90;;;;;;5077727;28;20460;-93
2022/08/30 12:14:40;;;;;;;7.50;6.00;;;28.90;99.90;;;;;;5097199;28;20504;-93
2022/08/30 12:20:00;;;;;;;6.47;5.87;;;28.90;99.90;;;;;;5097026;28;20466;-93
2022/08/30 12:22:29;;;;;;;6.83;6.00;;;28.90;99.90;;;;;;5075086;28;20500;-93
2022/08/30 12:24:55;;;;;;;7.97;5.47;;;29.00;99.90;;;;;;5074524;28;20450;-93
2022/08/30 12:27:29;;;;;;;5.90;5.30;;;29.00;99.90;;;;;;5089312;28;20435;-93
2022/08/30 12:30:00;;;;;;;7.00;5.50;;;29.00;99.90;;;;;;5076740;28;20455;-94
2022/08/30 12:32:28;;;;;;;5.80;5.23;;;29.00;99.90;;;;;;5077350;28;20494;-93
2022/08/30 12:35:00;;;;;;;5.90;5.30;;;29.00;99.90;;;;;;5075727;28;20972;-93
2022/08/30 12:37:38;;;;;;;9.67;5.87;;;29.00;99.90;;;;;;5079214;28;20539;-93
2022/08/30 12:40:13;;;;;;;8.87;6.70;;;29.00;99.90;;;;;;5080514;28;20440;-93
2022/08/30 12:42:41;;;;;;;7.60;6.43;;;29.00;99.90;;;;;;5080182;28;20499;-93
2022/08/30 12:45:12;;;;;;;5.83;5.33;;;29.00;99.90;;;;;;5076713;28;20457;-94
2022/08/30 12:47:56;;;;;;;5.67;4.90;;;29.00;99.90;;;;;;5080062;28;20452;-93
2022/08/30 12:50:26;;;;;;;6.20;5.60;;;29.10;99.90;;;;;;5071268;28;20474;-93
2022/08/30 12:53:10;;;;;;;6.63;4.77;;;29.10;99.90;;;;;;5093558;28;20431;-93
2022/08/30 12:55:58;;;;;;;5.57;5.07;;;29.10;99.90;;;;;;5079952;28;20446;-94
2022/08/30 12:58:35;;;;;;;5.93;5.30;;;29.10;99.90;;;;;;5080636;28;21019;-94
2022/08/30 13:01:18;;;;;;;7.27;4.97;;;29.20;99.90;;;;;;5076315;28;20441;-93
2022/08/30 13:04:12;;;;;;;5.43;4.80;;;29.20;99.90;;;;;;5078746;28;20446;-93
2022/08/30 13:06:51;;;;;;;6.00;5.40;;;29.20;99.90;;;;;;5090928;28;20459;-93